Time;durP1;ratioP1;P1;durP2;ratioP2;P2;SDS_P1;SDS_P2;PMS_P1;PMS_P2;Temp;Humidity;BMP_temperature;BMP_pressure;BME280_temperature;BME280_humidity;BME280_pressure;Samples;Min_cycle;Max_cycle;Signal;HPM_P1;HPM_P2
2022/01/31 00:00:09;;;;;;;8.57;6.70;;;7.50;93.60;;;;;;5008472;28;20884;-68
2022/01/31 00:02:35;;;;;;;8.23;6.13;;;7.60;93.40;;;;;;5034212;28;20412;-69
2022/01/31 00:05:02;;;;;;;13.60;5.60;;;7.60;93.30;;;;;;5032433;28;20773;-69
2022/01/31 00:07:28;;;;;;;9.03;5.60;;;7.50;93.30;;;;;;5034656;28;20438;-70
2022/01/31 00:09:53;;;;;;;8.67;5.20;;;7.50;93.30;;;;;;5035026;28;20780;-68
2022/01/31 00:12:20;;;;;;;9.20;5.17;;;7.40;93.30;;;;;;5031763;28;20310;-69
2022/01/31 00:14:49;;;;;;;9.70;5.10;;;7.50;93.60;;;;;;5054096;28;20252;-69
2022/01/31 00:17:16;;;;;;;5.87;5.20;;;7.50;93.10;;;;;;5054829;28;20457;-68
2022/01/31 00:19:43;;;;;;;11.43;5.83;;;7.50;92.70;;;;;;5053470;28;20852;-68
2022/01/31 00:22:11;;;;;;;10.50;5.07;;;7.60;92.80;;;;;;5054006;28;20471;-68
2022/01/31 00:24:37;;;;;;;7.87;5.57;;;7.50;92.50;;;;;;5053688;28;20455;-69
2022/01/31 00:27:05;;;;;;;9.63;5.00;;;7.50;92.80;;;;;;5053840;28;20434;-69
2022/01/31 00:29:31;;;;;;;8.10;4.90;;;7.60;92.70;;;;;;5034437;28;20504;-69
2022/01/31 00:31:58;;;;;;;12.13;5.03;;;7.60;92.60;;;;;;5016580;28;20432;-68
2022/01/31 00:34:24;;;;;;;7.27;4.80;;;7.70;92.50;;;;;;5019806;28;20428;-68
2022/01/31 00:36:50;;;;;;;10.20;5.10;;;7.60;92.50;;;;;;5053548;28;20893;-68
2022/01/31 00:39:16;;;;;;;10.10;5.20;;;7.70;92.50;;;;;;5053923;28;20418;-68
2022/01/31 00:41:43;;;;;;;8.10;4.90;;;7.70;92.30;;;;;;5030359;28;20789;-68
2022/01/31 00:44:23;;;;;;;8.33;4.47;;;7.70;92.70;;;;;;5033786;28;20507;-68
2022/01/31 00:46:54;;;;;;;10.60;5.87;;;7.60;92.60;;;;;;5033406;28;20412;-68
2022/01/31 00:49:35;;;;;;;9.43;4.80;;;7.50;92.60;;;;;;5034102;28;20416;-68
2022/01/31 00:52:01;;;;;;;8.77;4.07;;;7.60;93.00;;;;;;5034204;28;20419;-68
2022/01/31 00:54:27;;;;;;;7.10;5.47;;;7.60;92.90;;;;;;5033659;28;20483;-80
2022/01/31 00:56:53;;;;;;;8.77;4.60;;;7.70;93.20;;;;;;5016043;28;20428;-68
2022/01/31 00:59:19;;;;;;;8.63;4.50;;;7.70;93.00;;;;;;5033882;28;20420;-68
2022/01/31 01:01:45;;;;;;;5.80;3.80;;;7.80;93.30;;;;;;5015095;28;20473;-69
2022/01/31 01:04:11;;;;;;;4.97;4.20;;;7.80;93.00;;;;;;5033130;28;20178;-68
2022/01/31 01:06:37;;;;;;;8.93;5.23;;;7.80;93.00;;;;;;5006056;28;20453;-69
2022/01/31 01:09:03;;;;;;;7.83;4.60;;;7.80;93.00;;;;;;5032487;28;20191;-69
2022/01/31 01:11:29;;;;;;;8.97;5.80;;;7.80;93.10;;;;;;5033240;28;20436;-79
2022/01/31 01:13:55;;;;;;;6.93;4.33;;;7.70;93.10;;;;;;5015498;28;20503;-68
2022/01/31 01:16:20;;;;;;;7.17;4.97;;;7.80;93.40;;;;;;4998912;28;20185;-69
2022/01/31 01:18:46;;;;;;;10.40;4.60;;;7.80;93.30;;;;;;5032945;28;20239;-68
2022/01/31 01:21:12;;;;;;;8.33;4.47;;;7.70;93.70;;;;;;5033216;28;20223;-69
2022/01/31 01:23:38;;;;;;;5.77;4.70;;;7.70;93.40;;;;;;5030278;28;20189;-69
2022/01/31 01:26:04;;;;;;;7.50;4.30;;;7.60;93.50;;;;;;5035384;28;20436;-68
2022/01/31 01:28:30;;;;;;;5.60;3.83;;;7.30;93.60;;;;;;5053053;28;20429;-79
2022/01/31 01:30:56;;;;;;;15.47;4.67;;;7.60;93.70;;;;;;5052743;28;20505;-68
2022/01/31 01:33:24;;;;;;;6.67;4.70;;;7.60;93.70;;;;;;5052241;28;20462;-68
2022/01/31 01:35:53;;;;;;;6.23;4.10;;;7.60;93.90;;;;;;5052028;28;20643;-68
2022/01/31 01:38:19;;;;;;;10.90;5.00;;;7.50;94.00;;;;;;5052690;28;20522;-68
2022/01/31 01:40:46;;;;;;;6.57;4.17;;;7.60;95.00;;;;;;5052018;28;20775;-69
2022/01/31 01:43:15;;;;;;;6.87;4.03;;;7.50;94.40;;;;;;5043904;28;20552;-68
2022/01/31 01:45:42;;;;;;;5.70;4.33;;;7.50;94.50;;;;;;5033226;28;20788;-69
2022/01/31 01:48:09;;;;;;;7.47;4.53;;;7.50;94.40;;;;;;5014961;28;20473;-68
2022/01/31 01:50:37;;;;;;;6.17;4.27;;;7.50;94.40;;;;;;5014521;28;20886;-69
2022/01/31 01:53:03;;;;;;;4.97;3.93;;;7.50;94.60;;;;;;5015272;28;20574;-69
2022/01/31 01:55:30;;;;;;;5.17;3.73;;;7.50;94.50;;;;;;5032773;28;20423;-79
2022/01/31 01:57:56;;;;;;;10.10;4.67;;;7.40;94.50;;;;;;5032457;28;20446;-69
2022/01/31 02:00:27;;;;;;;5.90;4.70;;;7.30;94.90;;;;;;5051190;28;20538;-68
2022/01/31 02:02:54;;;;;;;7.30;3.70;;;7.20;95.00;;;;;;5052151;28;20442;-69
2022/01/31 02:05:21;;;;;;;9.63;4.13;;;7.20;95.30;;;;;;5046466;28;20506;-69
2022/01/31 02:07:47;;;;;;;4.87;4.00;;;7.10;95.60;;;;;;5014038;28;20517;-69
2022/01/31 02:10:14;;;;;;;7.80;3.47;;;7.10;95.40;;;;;;5032710;28;20449;-68
2022/01/31 02:12:46;;;;;;;9.57;4.00;;;7.30;95.50;;;;;;5019469;28;20466;-69
2022/01/31 02:15:13;;;;;;;9.13;4.00;;;7.30;95.30;;;;;;5032385;28;20431;-69
2022/01/31 02:17:39;;;;;;;5.90;4.10;;;6.90;94.90;;;;;;5013761;28;20419;-69
2022/01/31 02:20:07;;;;;;;8.23;3.90;;;7.30;95.20;;;;;;5032162;28;20432;-69
2022/01/31 02:22:33;;;;;;;4.93;3.60;;;7.30;95.20;;;;;;5032764;28;20506;-77
2022/01/31 02:24:59;;;;;;;4.87;3.13;;;7.20;95.50;;;;;;5014401;28;20427;-69
2022/01/31 02:27:31;;;;;;;16.47;5.30;;;7.00;95.70;;;;;;5032026;28;20177;-69
2022/01/31 02:29:57;;;;;;;7.10;3.87;;;7.20;95.90;;;;;;5031868;28;20404;-69
2022/01/31 02:32:23;;;;;;;5.77;4.23;;;7.30;96.20;;;;;;5032512;28;20463;-69
2022/01/31 02:34:50;;;;;;;7.07;4.53;;;7.30;96.00;;;;;;4997577;28;20637;-69
2022/01/31 02:37:20;;;;;;;5.37;4.67;;;7.40;96.10;;;;;;5032306;28;20424;-68
2022/01/31 02:39:46;;;;;;;7.27;3.57;;;7.40;96.70;;;;;;5031178;28;20449;-69
2022/01/31 02:42:12;;;;;;;8.00;4.30;;;7.40;97.30;;;;;;5031903;28;20420;-69
2022/01/31 02:44:43;;;;;;;7.50;4.40;;;7.50;97.90;;;;;;5031354;28;20421;-69
2022/01/31 02:47:12;;;;;;;8.23;4.37;;;7.50;98.20;;;;;;5031960;28;20422;-69
2022/01/31 02:50:14;;;;;;;8.90;4.50;;;7.50;98.50;;;;;;5031121;28;20554;-70
2022/01/31 02:52:33;;;;;;;4.80;3.47;;;7.50;98.70;;;;;;5026883;28;20495;-69
2022/01/31 02:54:59;;;;;;;9.27;5.07;;;7.60;99.20;;;;;;5049983;28;20423;-69
2022/01/31 02:57:25;;;;;;;9.00;4.50;;;7.50;99.70;;;;;;5051925;28;20438;-69
2022/01/31 02:59:51;;;;;;;6.13;4.30;;;7.40;99.90;;;;;;5033437;28;20429;-69
2022/01/31 03:02:17;;;;;;;8.90;4.83;;;7.50;99.90;;;;;;5051939;28;20882;-69
2022/01/31 03:04:43;;;;;;;11.43;4.30;;;7.40;99.90;;;;;;5000574;28;20428;-69
2022/01/31 03:07:09;;;;;;;6.30;4.10;;;7.20;99.90;;;;;;5051686;28;20952;-69
2022/01/31 03:09:35;;;;;;;10.10;4.70;;;7.20;99.90;;;;;;5033814;28;20185;-79
2022/01/31 03:12:00;;;;;;;6.37;4.20;;;7.20;99.90;;;;;;5033245;28;20818;-69
2022/01/31 03:14:26;;;;;;;6.27;4.33;;;7.40;99.90;;;;;;5033987;28;20492;-69
2022/01/31 03:16:52;;;;;;;7.80;4.33;;;7.20;99.90;;;;;;5016699;28;20183;-69
2022/01/31 03:19:20;;;;;;;8.53;5.27;;;6.80;99.90;;;;;;5032514;28;20428;-69
2022/01/31 03:21:46;;;;;;;6.60;4.30;;;7.00;99.90;;;;;;5031122;28;20454;-69
2022/01/31 03:24:12;;;;;;;7.13;4.03;;;7.00;99.90;;;;;;5031808;28;20446;-69
2022/01/31 03:26:39;;;;;;;8.47;4.63;;;6.90;99.90;;;;;;5031261;28;20522;-80
2022/01/31 03:29:05;;;;;;;5.40;4.23;;;6.90;99.90;;;;;;5039479;28;20418;-69
2022/01/31 03:31:31;;;;;;;6.10;4.07;;;6.90;99.90;;;;;;5044665;28;20449;-68
2022/01/31 03:33:58;;;;;;;5.43;4.13;;;7.00;99.90;;;;;;5031017;28;20454;-69
2022/01/31 03:36:24;;;;;;;4.80;3.60;;;6.70;99.90;;;;;;5038737;28;20930;-68
2022/01/31 03:38:50;;;;;;;4.00;3.80;;;7.00;99.90;;;;;;5051616;28;20407;-68
2022/01/31 03:41:18;;;;;;;4.70;4.00;;;7.10;99.90;;;;;;5055334;28;20254;-68
2022/01/31 03:43:44;;;;;;;4.33;4.00;;;7.00;99.90;;;;;;5053917;28;20942;-69
2022/01/31 03:46:10;;;;;;;3.73;3.43;;;6.90;99.90;;;;;;5055038;28;20459;-69
2022/01/31 03:48:36;;;;;;;3.63;3.33;;;6.90;99.90;;;;;;5035440;28;20468;-73
2022/01/31 03:51:04;;;;;;;4.83;3.57;;;6.90;99.90;;;;;;5032143;28;20180;-68
2022/01/31 03:53:30;;;;;;;3.40;3.20;;;6.80;99.90;;;;;;5034830;28;20889;-68
2022/01/31 03:55:56;;;;;;;3.67;3.30;;;6.50;99.90;;;;;;5034189;28;20482;-68
2022/01/31 03:58:22;;;;;;;5.97;4.13;;;6.80;99.90;;;;;;5035187;28;20177;-69
2022/01/31 04:00:48;;;;;;;3.80;3.50;;;6.90;99.90;;;;;;5048976;28;20475;-69
2022/01/31 04:03:14;;;;;;;3.37;3.10;;;6.90;99.90;;;;;;5054999;28;20421;-69
2022/01/31 04:05:40;;;;;;;3.80;3.50;;;6.70;99.90;;;;;;5053527;28;20221;-80
2022/01/31 04:08:07;;;;;;;3.97;3.67;;;6.70;99.90;;;;;;5055063;28;20980;-69
2022/01/31 04:10:34;;;;;;;3.27;3.07;;;6.70;99.90;;;;;;5053838;28;20770;-69
2022/01/31 04:13:00;;;;;;;4.33;4.00;;;6.70;99.90;;;;;;5037378;28;20458;-68
2022/01/31 04:15:26;;;;;;;4.00;3.60;;;6.90;99.90;;;;;;5034904;28;20437;-69
2022/01/31 04:17:52;;;;;;;3.73;3.53;;;6.80;99.90;;;;;;5016262;28;20546;-69
2022/01/31 04:20:19;;;;;;;4.27;4.07;;;6.80;99.90;;;;;;5039394;28;20418;-69
2022/01/31 04:22:52;;;;;;;4.00;3.60;;;7.10;99.90;;;;;;5053624;28;20599;-70
2022/01/31 04:26:10;;;;;;;3.90;3.60;;;6.90;99.90;;;;;;5054802;28;20760;-68
2022/01/31 04:28:06;;;;;;;4.20;3.90;;;6.90;99.90;;;;;;5029099;28;20428;-69
2022/01/31 04:30:36;;;;;;;3.87;3.57;;;6.90;99.90;;;;;;5038209;28;20421;-68
2022/01/31 04:33:02;;;;;;;4.37;3.93;;;7.00;99.90;;;;;;5033309;28;20462;-69
2022/01/31 04:35:27;;;;;;;3.50;3.20;;;7.10;99.90;;;;;;5034435;28;20428;-68
2022/01/31 04:37:53;;;;;;;5.70;3.40;;;7.10;99.90;;;;;;5033812;28;20419;-69
2022/01/31 04:40:19;;;;;;;3.40;3.07;;;7.00;99.90;;;;;;5047369;28;20192;-68
2022/01/31 04:42:45;;;;;;;5.43;3.73;;;7.00;99.90;;;;;;5053195;28;20309;-69
2022/01/31 04:45:12;;;;;;;6.10;5.27;;;7.00;99.90;;;;;;5054692;28;20282;-68
2022/01/31 04:47:38;;;;;;;4.13;3.23;;;6.90;99.90;;;;;;5053802;28;20926;-68
2022/01/31 04:50:05;;;;;;;3.57;3.30;;;6.80;99.90;;;;;;5052862;28;20430;-69
2022/01/31 04:52:31;;;;;;;4.07;3.70;;;6.90;99.90;;;;;;5051988;28;20457;-68
2022/01/31 04:54:57;;;;;;;5.50;5.00;;;6.90;99.90;;;;;;5052925;28;20473;-68
2022/01/31 04:57:22;;;;;;;3.23;3.03;;;6.60;99.90;;;;;;5038047;28;20423;-69
2022/01/31 04:59:50;;;;;;;2.87;2.67;;;7.10;99.90;;;;;;5033040;28;20191;-69
2022/01/31 05:02:15;;;;;;;2.80;2.43;;;7.10;99.90;;;;;;5033862;28;20177;-68
2022/01/31 05:04:41;;;;;;;3.47;3.20;;;7.40;99.90;;;;;;5033320;28;20793;-80
2022/01/31 05:07:07;;;;;;;3.87;3.57;;;7.30;99.90;;;;;;5015493;28;20252;-69
2022/01/31 05:09:33;;;;;;;4.27;3.87;;;7.30;99.90;;;;;;5034103;28;20750;-68
2022/01/31 05:11:59;;;;;;;6.13;5.10;;;7.40;99.90;;;;;;5019379;28;20176;-69
2022/01/31 05:14:24;;;;;;;5.60;5.10;;;7.40;99.90;;;;;;5043589;28;20217;-68
2022/01/31 05:16:50;;;;;;;6.40;5.90;;;7.30;99.90;;;;;;5032815;28;20434;-69
2022/01/31 05:19:16;;;;;;;6.27;5.40;;;7.40;99.90;;;;;;5016111;28;20561;-68
2022/01/31 05:21:42;;;;;;;6.20;5.53;;;7.00;99.90;;;;;;5033299;28;20736;-80
2022/01/31 05:24:07;;;;;;;7.30;6.40;;;7.20;99.90;;;;;;5015409;28;20535;-69
2022/01/31 05:26:34;;;;;;;6.13;5.40;;;7.40;99.90;;;;;;5033407;28;20188;-69
2022/01/31 05:29:00;;;;;;;10.63;7.30;;;7.50;99.90;;;;;;5032941;28;20185;-69
2022/01/31 05:31:25;;;;;;;9.73;6.37;;;7.50;99.90;;;;;;5030766;28;20473;-68
2022/01/31 05:33:51;;;;;;;8.97;6.63;;;7.50;99.90;;;;;;5052072;28;20204;-69
2022/01/31 05:36:17;;;;;;;10.93;7.17;;;7.50;99.90;;;;;;5029550;28;20223;-71
2022/01/31 05:38:44;;;;;;;7.10;6.50;;;7.40;99.90;;;;;;5035864;28;20214;-77
2022/01/31 05:41:17;;;;;;;10.63;7.00;;;7.60;99.90;;;;;;5033947;28;20442;-68
2022/01/31 05:43:43;;;;;;;11.40;8.37;;;7.70;99.90;;;;;;5052961;28;20410;-80
2022/01/31 05:46:08;;;;;;;11.20;7.60;;;7.60;99.90;;;;;;5052046;28;20923;-68
2022/01/31 05:48:34;;;;;;;12.93;7.20;;;7.70;99.90;;;;;;5035453;28;20187;-68
2022/01/31 05:51:02;;;;;;;8.97;6.80;;;7.80;99.90;;;;;;5052072;28;20233;-69
2022/01/31 05:53:30;;;;;;;7.70;6.60;;;7.90;99.90;;;;;;5041348;28;20204;-69
2022/01/31 05:55:58;;;;;;;7.10;6.43;;;7.80;99.90;;;;;;5016370;28;20421;-69
2022/01/31 05:58:24;;;;;;;7.40;5.90;;;7.80;99.90;;;;;;5023624;28;20511;-68
2022/01/31 06:00:50;;;;;;;9.37;6.03;;;7.90;99.90;;;;;;5051957;28;20505;-69
2022/01/31 06:03:16;;;;;;;9.40;6.80;;;7.90;99.90;;;;;;5004646;28;20424;-68
2022/01/31 06:05:42;;;;;;;9.97;6.03;;;7.60;99.90;;;;;;5052739;28;20419;-69
2022/01/31 06:08:07;;;;;;;8.57;6.23;;;7.80;99.90;;;;;;5043006;28;20178;-68
2022/01/31 06:10:40;;;;;;;6.60;5.17;;;7.80;99.90;;;;;;5032728;28;20189;-69
2022/01/31 06:13:06;;;;;;;8.03;6.20;;;7.80;99.90;;;;;;5031509;28;20205;-68
2022/01/31 06:15:32;;;;;;;8.20;5.57;;;7.80;99.90;;;;;;5032647;28;20887;-68
2022/01/31 06:17:57;;;;;;;7.83;5.43;;;7.80;99.90;;;;;;5031672;28;20189;-68
2022/01/31 06:20:23;;;;;;;10.30;5.73;;;7.70;99.90;;;;;;5020452;28;20194;-69
2022/01/31 06:22:51;;;;;;;9.30;5.13;;;7.70;99.90;;;;;;5032000;28;20236;-80
2022/01/31 06:25:18;;;;;;;9.87;5.23;;;7.70;99.90;;;;;;5032297;28;20204;-69
2022/01/31 06:27:44;;;;;;;6.40;4.50;;;7.70;99.90;;;;;;5032424;28;20418;-68
2022/01/31 06:30:10;;;;;;;7.00;5.00;;;7.20;99.90;;;;;;5031601;28;20417;-68
2022/01/31 06:32:36;;;;;;;7.10;5.20;;;7.40;99.90;;;;;;5032487;28;20455;-68
2022/01/31 06:35:03;;;;;;;8.00;6.27;;;7.40;99.90;;;;;;5031574;28;20458;-68
2022/01/31 06:37:29;;;;;;;7.67;6.90;;;7.40;99.90;;;;;;5034898;28;20440;-69
2022/01/31 06:39:55;;;;;;;8.10;6.63;;;7.30;99.90;;;;;;5043826;28;20412;-69
2022/01/31 06:42:20;;;;;;;8.90;6.70;;;7.30;99.90;;;;;;5041677;28;20926;-69
2022/01/31 06:44:46;;;;;;;8.00;6.33;;;7.40;99.90;;;;;;5040565;28;20235;-81
2022/01/31 06:47:12;;;;;;;14.67;7.90;;;7.50;99.90;;;;;;5014807;28;20183;-68
2022/01/31 06:49:38;;;;;;;10.50;7.00;;;7.50;99.90;;;;;;5031463;28;20404;-69
2022/01/31 06:52:05;;;;;;;8.67;6.40;;;7.60;99.90;;;;;;5013773;28;20207;-68
2022/01/31 06:54:31;;;;;;;8.43;6.33;;;7.60;99.90;;;;;;5031996;28;20451;-69
2022/01/31 06:56:58;;;;;;;16.20;7.27;;;7.60;99.90;;;;;;5031678;28;20904;-67
2022/01/31 06:59:23;;;;;;;10.07;6.27;;;7.70;99.90;;;;;;5038683;28;20858;-67
2022/01/31 07:01:49;;;;;;;10.17;6.27;;;7.70;99.90;;;;;;5035930;28;20530;-79
2022/01/31 07:04:15;;;;;;;7.90;7.20;;;7.70;99.90;;;;;;5031866;28;20194;-67
2022/01/31 07:06:41;;;;;;;10.00;6.20;;;7.70;99.90;;;;;;5040548;28;20445;-68
2022/01/31 07:09:07;;;;;;;13.77;7.23;;;7.80;99.90;;;;;;5031817;28;20654;-67
2022/01/31 07:11:38;;;;;;;6.77;6.10;;;7.80;99.90;;;;;;5032428;28;20225;-68
2022/01/31 07:14:23;;;;;;;7.60;6.10;;;7.90;99.90;;;;;;5033048;28;20448;-67
2022/01/31 07:16:49;;;;;;;11.77;6.10;;;7.90;99.90;;;;;;5035656;28;20412;-81
2022/01/31 07:19:15;;;;;;;14.47;7.10;;;7.90;99.90;;;;;;5035778;28;20459;-68
2022/01/31 07:21:48;;;;;;;5.97;5.10;;;7.90;99.90;;;;;;5035687;28;20249;-68
2022/01/31 07:24:22;;;;;;;6.80;5.50;;;7.80;99.90;;;;;;5038078;28;20549;-68
2022/01/31 07:26:48;;;;;;;6.20;5.53;;;7.70;99.90;;;;;;5036174;28;20481;-68
2022/01/31 07:29:15;;;;;;;5.33;4.47;;;7.70;99.90;;;;;;5040230;28;20473;-68
2022/01/31 07:31:42;;;;;;;6.20;4.10;;;7.60;99.90;;;;;;5043772;28;20482;-79
2022/01/31 07:34:08;;;;;;;4.40;4.00;;;7.40;99.90;;;;;;5047134;28;20458;-67
2022/01/31 07:36:35;;;;;;;4.47;3.20;;;7.40;99.90;;;;;;5055030;28;20426;-68
2022/01/31 07:39:01;;;;;;;3.90;3.60;;;7.20;99.90;;;;;;5046803;28;20503;-68
2022/01/31 07:41:27;;;;;;;4.80;4.40;;;7.10;99.90;;;;;;5035838;28;20415;-68
2022/01/31 07:43:53;;;;;;;4.20;3.90;;;7.00;99.90;;;;;;5035428;28;20472;-68
2022/01/31 07:46:19;;;;;;;5.03;3.20;;;6.90;99.90;;;;;;5035898;28;20176;-68
2022/01/31 07:48:45;;;;;;;3.10;2.90;;;7.00;99.90;;;;;;5035574;28;20418;-68
2022/01/31 07:51:11;;;;;;;5.23;3.00;;;7.00;99.90;;;;;;5034970;28;20275;-68
2022/01/31 07:53:40;;;;;;;3.60;3.30;;;6.90;99.90;;;;;;5035614;28;20215;-68
2022/01/31 07:56:10;;;;;;;3.53;3.23;;;6.70;99.90;;;;;;5038087;28;20435;-68
2022/01/31 07:58:36;;;;;;;3.20;3.00;;;6.80;99.90;;;;;;5044068;28;20426;-68
2022/01/31 08:01:04;;;;;;;3.73;3.47;;;6.80;99.90;;;;;;5035038;28;20462;-68
2022/01/31 08:03:30;;;;;;;4.27;3.87;;;6.90;99.90;;;;;;5046101;28;20425;-67
2022/01/31 08:05:56;;;;;;;3.73;3.47;;;6.80;99.90;;;;;;5043021;28;20784;-68
2022/01/31 08:08:23;;;;;;;4.37;3.60;;;6.90;99.90;;;;;;5055369;28;20761;-67
2022/01/31 08:10:50;;;;;;;4.43;4.03;;;6.90;99.90;;;;;;5022180;28;20951;-67
2022/01/31 08:13:16;;;;;;;4.07;3.63;;;7.00;99.90;;;;;;5035191;28;20463;-67
2022/01/31 08:16:00;;;;;;;4.87;4.53;;;6.90;99.90;;;;;;5035132;28;20420;-68
2022/01/31 08:18:26;;;;;;;5.50;5.07;;;6.80;99.90;;;;;;5034866;28;20584;-68
2022/01/31 08:20:52;;;;;;;6.10;5.80;;;6.90;99.90;;;;;;5034281;28;20940;-75
2022/01/31 08:23:18;;;;;;;5.90;5.40;;;6.80;99.90;;;;;;5041359;28;20430;-67
2022/01/31 08:25:48;;;;;;;4.23;3.83;;;6.80;99.90;;;;;;5043809;28;20194;-68
2022/01/31 08:28:19;;;;;;;3.80;3.40;;;6.80;99.90;;;;;;5044907;28;20419;-67
2022/01/31 08:33:25;;;;;;;3.50;3.20;;;6.40;99.90;;;;;;5039864;28;20451;-67
2022/01/31 08:35:53;;;;;;;4.10;3.80;;;6.60;99.90;;;;;;5024556;28;20528;-68
2022/01/31 08:38:19;;;;;;;3.93;3.70;;;6.60;99.90;;;;;;5041742;28;20405;-68
2022/01/31 08:40:45;;;;;;;3.80;3.50;;;6.70;99.90;;;;;;5041686;28;20431;-68
2022/01/31 08:43:14;;;;;;;5.07;4.67;;;6.70;99.90;;;;;;5026639;28;20265;-68
2022/01/31 08:45:40;;;;;;;4.23;3.93;;;6.70;99.90;;;;;;5035557;28;20764;-67
2022/01/31 08:48:06;;;;;;;5.17;4.73;;;6.70;99.90;;;;;;5035499;28;20389;-68
2022/01/31 08:50:33;;;;;;;5.30;4.87;;;6.70;99.90;;;;;;5046050;28;20435;-68
2022/01/31 08:52:59;;;;;;;5.20;4.80;;;6.70;99.90;;;;;;5031682;28;20515;-69
2022/01/31 08:55:25;;;;;;;5.63;5.17;;;6.70;99.90;;;;;;5046775;28;20880;-68
2022/01/31 08:57:55;;;;;;;5.87;5.37;;;6.70;99.90;;;;;;5037562;28;20177;-68
2022/01/31 09:00:21;;;;;;;5.03;4.73;;;6.80;99.90;;;;;;5044798;28;20414;-67
2022/01/31 09:03:04;;;;;;;4.77;4.37;;;6.80;99.90;;;;;;5044187;28;20439;-68
2022/01/31 09:05:30;;;;;;;4.67;4.27;;;6.80;99.90;;;;;;5029443;28;20402;-68
2022/01/31 09:07:55;;;;;;;4.00;3.70;;;6.70;99.90;;;;;;5033065;28;20427;-84
2022/01/31 09:10:21;;;;;;;3.87;3.57;;;6.70;99.90;;;;;;5039170;28;20608;-68
2022/01/31 09:12:47;;;;;;;4.97;3.63;;;6.70;99.90;;;;;;5045403;28;20676;-68
2022/01/31 09:15:13;;;;;;;5.90;5.30;;;6.80;99.90;;;;;;5036335;28;20188;-70
2022/01/31 09:17:40;;;;;;;4.43;3.70;;;6.90;99.90;;;;;;5053388;28;20183;-67
2022/01/31 09:20:07;;;;;;;5.40;4.90;;;6.80;99.90;;;;;;5048185;28;20418;-68
2022/01/31 09:22:32;;;;;;;5.27;4.80;;;6.80;99.90;;;;;;5049136;28;20500;-68
2022/01/31 09:24:58;;;;;;;4.50;4.23;;;6.70;99.90;;;;;;5039780;28;20518;-68
2022/01/31 09:27:24;;;;;;;5.47;5.07;;;6.50;99.90;;;;;;5040097;28;20171;-68
2022/01/31 09:29:50;;;;;;;5.70;4.77;;;6.70;99.90;;;;;;5045272;28;20423;-68
2022/01/31 09:32:21;;;;;;;5.63;5.10;;;6.60;99.90;;;;;;5036073;28;20422;-67
2022/01/31 09:34:47;;;;;;;6.17;5.87;;;6.70;99.90;;;;;;5021359;28;20982;-68
2022/01/31 09:37:13;;;;;;;5.47;5.03;;;6.60;99.90;;;;;;5039759;28;20503;-68
2022/01/31 09:39:39;;;;;;;5.93;5.27;;;6.60;99.90;;;;;;5053262;28;20244;-68
2022/01/31 09:42:09;;;;;;;5.53;5.00;;;6.70;99.90;;;;;;5052810;28;20627;-68
2022/01/31 09:47:06;;;;;;;5.30;4.80;;;6.70;99.90;;;;;;5037026;28;20457;-73
2022/01/31 09:49:31;;;;;;;5.10;4.70;;;6.70;99.90;;;;;;5033330;28;20421;-68
2022/01/31 09:51:57;;;;;;;5.60;4.73;;;6.70;99.90;;;;;;5035828;28;20414;-72
2022/01/31 09:54:25;;;;;;;5.33;4.80;;;6.70;99.90;;;;;;5033030;28;20457;-68
2022/01/31 09:56:53;;;;;;;6.47;5.50;;;6.70;99.90;;;;;;5033149;28;20267;-70
2022/01/31 09:59:19;;;;;;;6.00;5.50;;;6.70;99.90;;;;;;5032541;28;20843;-68
2022/01/31 10:01:55;;;;;;;6.80;4.50;;;6.70;99.90;;;;;;5033080;28;20429;-68
2022/01/31 10:04:29;;;;;;;4.10;3.80;;;6.70;99.90;;;;;;5033383;28;20420;-68
2022/01/31 10:06:57;;;;;;;6.43;4.50;;;6.20;99.90;;;;;;5049107;28;20429;-68
2022/01/31 10:09:29;;;;;;;4.60;4.20;;;6.70;99.90;;;;;;5026683;28;21692;-68
2022/01/31 10:12:10;;;;;;;4.63;4.30;;;6.70;99.90;;;;;;5022378;28;20752;-68
2022/01/31 10:17:25;;;;;;;4.63;4.25;;;6.80;99.90;;;;;;5014710;28;20419;-68
2022/01/31 10:19:55;;;;;;;5.20;4.73;;;6.80;99.90;;;;;;5033090;28;20190;-68
2022/01/31 10:22:23;;;;;;;4.30;3.90;;;6.80;99.90;;;;;;5032395;28;20438;-68
2022/01/31 10:24:52;;;;;;;5.30;4.77;;;6.90;99.90;;;;;;5039180;28;20793;-68
2022/01/31 10:27:29;;;;;;;6.53;4.57;;;6.90;99.90;;;;;;5038276;28;20417;-68
2022/01/31 10:30:19;;;;;;;4.50;3.97;;;6.90;99.90;;;;;;5029562;28;20473;-68
2022/01/31 10:32:47;;;;;;;4.57;4.23;;;6.90;99.90;;;;;;5031669;28;20467;-69
2022/01/31 10:35:23;;;;;;;3.50;3.20;;;6.90;99.90;;;;;;5043631;28;20513;-70
2022/01/31 10:37:54;;;;;;;4.53;4.23;;;6.90;99.90;;;;;;5051909;28;20858;-70
2022/01/31 10:53:47;;;;;;;3.60;3.30;;;7.10;99.90;;;;;;5032319;28;20851;-69
2022/01/31 10:56:14;;;;;;;3.87;3.20;;;7.10;99.90;;;;;;5014077;28;20824;-69
2022/01/31 10:58:56;;;;;;;3.33;3.13;;;7.10;99.90;;;;;;5032342;28;20415;-69
2022/01/31 11:01:23;;;;;;;3.80;2.90;;;7.10;99.90;;;;;;5031904;28;20419;-69
2022/01/31 11:03:48;;;;;;;5.00;3.30;;;7.00;99.90;;;;;;5032849;28;20451;-69
2022/01/31 11:06:14;;;;;;;3.40;3.10;;;7.10;99.90;;;;;;5013865;28;20949;-70
2022/01/31 11:08:40;;;;;;;3.10;2.90;;;7.20;99.90;;;;;;5032386;28;20214;-69
2022/01/31 11:11:07;;;;;;;4.30;3.00;;;7.20;99.90;;;;;;5014208;28;20180;-70
2022/01/31 11:13:34;;;;;;;3.47;3.27;;;7.20;99.90;;;;;;5031970;28;20478;-69
2022/01/31 11:16:00;;;;;;;3.63;3.33;;;7.10;99.90;;;;;;5032221;28;20429;-69
2022/01/31 11:18:29;;;;;;;3.83;2.90;;;7.20;99.90;;;;;;5031691;28;20395;-69
2022/01/31 11:21:08;;;;;;;3.67;3.30;;;7.20;99.90;;;;;;5032009;28;20222;-69
2022/01/31 11:23:41;;;;;;;2.80;2.70;;;7.30;99.90;;;;;;5014704;28;20777;-68
2022/01/31 11:26:12;;;;;;;3.30;3.10;;;7.30;99.90;;;;;;5031695;28;20412;-69
2022/01/31 11:28:41;;;;;;;3.10;2.80;;;7.40;99.90;;;;;;5032488;28;20423;-68
2022/01/31 11:31:07;;;;;;;3.60;2.77;;;7.10;99.90;;;;;;4997500;28;20422;-69
2022/01/31 11:33:35;;;;;;;3.10;2.90;;;7.40;99.90;;;;;;5032027;28;20558;-69
2022/01/31 11:36:01;;;;;;;4.23;3.47;;;7.50;99.90;;;;;;5032125;28;20406;-68
2022/01/31 11:38:28;;;;;;;3.70;3.50;;;7.50;99.90;;;;;;5031618;28;20423;-68
2022/01/31 11:41:01;;;;;;;3.90;3.60;;;7.50;99.90;;;;;;5014710;28;20527;-68
2022/01/31 11:43:27;;;;;;;3.13;2.80;;;7.60;99.90;;;;;;5031453;28;20404;-68
2022/01/31 11:45:54;;;;;;;3.97;3.77;;;7.60;99.90;;;;;;5031581;28;20408;-69
2022/01/31 11:48:26;;;;;;;3.77;3.47;;;7.70;99.90;;;;;;5030991;28;20421;-69
2022/01/31 11:50:54;;;;;;;3.60;3.30;;;7.70;99.90;;;;;;5014084;28;20916;-68
2022/01/31 11:53:31;;;;;;;3.57;2.60;;;7.80;99.90;;;;;;5031197;28;20475;-69
2022/01/31 11:56:05;;;;;;;3.13;2.67;;;7.70;99.90;;;;;;5014365;28;20448;-69
2022/01/31 11:58:34;;;;;;;5.70;2.90;;;7.70;99.90;;;;;;5032042;28;20417;-69
2022/01/31 12:01:01;;;;;;;3.43;3.23;;;7.60;99.90;;;;;;5015366;28;20424;-68
2022/01/31 12:03:27;;;;;;;2.50;2.30;;;7.70;99.90;;;;;;5034511;28;20434;-69
2022/01/31 12:05:54;;;;;;;6.70;4.10;;;7.70;99.90;;;;;;5035662;28;20524;-69
2022/01/31 12:08:31;;;;;;;3.03;2.73;;;7.30;99.90;;;;;;5016439;28;20419;-69
2022/01/31 12:11:11;;;;;;;3.37;3.00;;;7.80;99.90;;;;;;5034891;28;20439;-69
2022/01/31 12:13:47;;;;;;;3.50;3.30;;;7.70;99.90;;;;;;5034814;28;20464;-69
2022/01/31 12:19:48;;;;;;;3.27;2.97;;;7.40;99.90;;;;;;5035283;28;20486;-69
2022/01/31 12:22:47;;;;;;;2.70;2.50;;;7.80;99.90;;;;;;5034098;28;20468;-69
2022/01/31 12:25:21;;;;;;;3.90;3.60;;;7.80;99.90;;;;;;5033896;28;20429;-69
2022/01/31 12:27:47;;;;;;;3.30;3.00;;;7.80;99.90;;;;;;5017357;28;20443;-68
2022/01/31 12:30:33;;;;;;;2.97;2.70;;;7.80;99.90;;;;;;5034402;28;20440;-69
2022/01/31 12:32:59;;;;;;;3.00;2.80;;;7.70;99.90;;;;;;5017503;28;20197;-68
2022/01/31 12:35:34;;;;;;;2.50;2.40;;;7.50;99.90;;;;;;5034276;28;20524;-69
2022/01/31 12:38:00;;;;;;;2.97;2.77;;;7.50;99.90;;;;;;5035209;28;20427;-69
2022/01/31 12:40:29;;;;;;;3.03;2.83;;;7.70;99.90;;;;;;5034253;28;20490;-69
2022/01/31 12:43:25;;;;;;;3.33;2.83;;;7.70;99.90;;;;;;5016788;28;20412;-69
2022/01/31 12:45:54;;;;;;;2.87;2.67;;;7.80;99.90;;;;;;5006609;28;20440;-71
2022/01/31 12:48:25;;;;;;;4.53;2.47;;;7.90;99.90;;;;;;4999899;28;20823;-69
2022/01/31 12:50:50;;;;;;;3.57;3.10;;;8.00;99.90;;;;;;5034300;28;20751;-70
2022/01/31 12:53:22;;;;;;;2.90;2.70;;;8.00;99.90;;;;;;5033926;28;20466;-69
2022/01/31 12:56:12;;;;;;;5.93;3.60;;;8.00;99.90;;;;;;5034799;28;20279;-68
2022/01/31 12:58:47;;;;;;;4.07;3.20;;;7.90;99.90;;;;;;5034488;28;20408;-69
2022/01/31 13:01:17;;;;;;;5.37;3.73;;;8.00;99.90;;;;;;5033762;28;20409;-69
2022/01/31 13:03:46;;;;;;;4.67;4.13;;;8.00;99.90;;;;;;5016668;28;20434;-68
2022/01/31 13:06:30;;;;;;;7.07;4.17;;;7.90;99.90;;;;;;5015956;28;20424;-72
2022/01/31 13:08:58;;;;;;;6.47;5.97;;;7.90;99.90;;;;;;5034795;28;20430;-69
2022/01/31 13:11:25;;;;;;;5.00;4.30;;;8.00;99.90;;;;;;5033154;28;20416;-69
2022/01/31 13:13:51;;;;;;;7.40;4.17;;;8.00;99.90;;;;;;5034263;28;21064;-70
2022/01/31 13:16:16;;;;;;;3.90;3.53;;;8.10;99.90;;;;;;5033288;28;20455;-69
2022/01/31 13:18:43;;;;;;;8.20;4.10;;;8.10;99.90;;;;;;5035906;28;20189;-69
2022/01/31 13:21:12;;;;;;;4.60;3.80;;;8.00;99.90;;;;;;5033544;28;20505;-85
2022/01/31 13:23:41;;;;;;;9.43;5.50;;;8.00;99.90;;;;;;5042762;28;20507;-68